Time;durP1;ratioP1;P1;durP2;ratioP2;P2;SDS_P1;SDS_P2;PMS_P1;PMS_P2;Temp;Humidity;BMP_temperature;BMP_pressure;BME280_temperature;BME280_humidity;BME280_pressure;Samples;Min_cycle;Max_cycle;Signal;HPM_P1;HPM_P2
2021/01/10 00:01:49;;;;;;;25.13;20.13;;;1.70;99.90;;;;;;5015133;28;20177;-85
2021/01/10 00:04:15;;;;;;;24.13;19.43;;;1.80;99.90;;;;;;5014006;28;20569;-86
2021/01/10 00:06:40;;;;;;;25.13;19.57;;;1.70;99.90;;;;;;5013924;28;20681;-86
2021/01/10 00:09:06;;;;;;;25.03;18.67;;;1.70;99.90;;;;;;5014240;28;20185;-88
2021/01/10 00:11:33;;;;;;;26.07;19.67;;;1.70;99.90;;;;;;5014902;28;20199;-90
2021/01/10 00:13:58;;;;;;;25.20;18.67;;;1.70;99.90;;;;;;5014717;28;20517;-87
2021/01/10 00:16:24;;;;;;;24.77;19.40;;;1.90;99.90;;;;;;5014555;28;20185;-88
2021/01/10 00:18:49;;;;;;;22.30;17.83;;;1.90;99.90;;;;;;5014909;28;20182;-87
2021/01/10 00:21:16;;;;;;;21.77;18.80;;;1.90;99.90;;;;;;5015454;28;20189;-86
2021/01/10 00:23:42;;;;;;;21.93;18.27;;;1.90;99.90;;;;;;5014863;28;20182;-87
2021/01/10 00:26:08;;;;;;;23.63;18.50;;;1.90;99.90;;;;;;5015093;28;20244;-86
2021/01/10 00:28:33;;;;;;;24.30;18.83;;;2.00;99.90;;;;;;5014376;28;20174;-86
2021/01/10 00:30:59;;;;;;;22.37;17.27;;;2.10;99.90;;;;;;5009749;28;20174;-88
2021/01/10 00:33:24;;;;;;;24.10;18.40;;;2.00;99.90;;;;;;5002919;28;20233;-89
2021/01/10 00:35:50;;;;;;;22.50;17.90;;;1.90;99.90;;;;;;4993600;28;20183;-89
2021/01/10 00:38:15;;;;;;;21.63;17.20;;;1.90;99.90;;;;;;4993336;28;20221;-88
2021/01/10 00:40:41;;;;;;;22.80;18.13;;;2.00;99.90;;;;;;4993851;28;20226;-85
2021/01/10 00:43:08;;;;;;;24.30;19.60;;;1.90;99.90;;;;;;4994041;28;20179;-86
2021/01/10 00:45:33;;;;;;;25.23;19.20;;;1.80;99.90;;;;;;4993807;28;20698;-86
2021/01/10 00:47:59;;;;;;;24.63;18.53;;;1.90;99.90;;;;;;4994349;28;20171;-87
2021/01/10 00:50:25;;;;;;;24.53;18.47;;;1.90;99.90;;;;;;4994312;28;20257;-86
2021/01/10 00:52:50;;;;;;;24.83;18.90;;;1.90;99.90;;;;;;4993945;28;20186;-86
2021/01/10 00:55:16;;;;;;;24.07;18.50;;;1.70;99.90;;;;;;4993470;28;20265;-86
2021/01/10 00:57:41;;;;;;;23.20;18.50;;;1.90;99.90;;;;;;4994394;28;20701;-89
2021/01/10 01:00:12;;;;;;;23.70;18.67;;;1.90;99.90;;;;;;4994828;28;20170;-87
2021/01/10 01:02:37;;;;;;;24.30;18.40;;;1.80;99.90;;;;;;4994920;28;20171;-87
2021/01/10 01:05:04;;;;;;;23.93;18.43;;;1.70;99.90;;;;;;4994662;28;20225;-92
2021/01/10 01:07:29;;;;;;;22.87;18.27;;;1.90;99.90;;;;;;4996465;28;20174;-88
2021/01/10 01:09:55;;;;;;;24.70;19.00;;;1.90;99.90;;;;;;4995006;28;20229;-88
2021/01/10 01:12:20;;;;;;;22.60;17.10;;;1.80;99.90;;;;;;4996744;28;20182;-87
2021/01/10 01:14:46;;;;;;;22.03;17.17;;;1.80;99.90;;;;;;4995436;28;20182;-88
2021/01/10 01:17:12;;;;;;;23.90;18.57;;;1.80;99.90;;;;;;4995657;28;20182;-86
2021/01/10 01:19:37;;;;;;;24.33;18.23;;;2.00;99.90;;;;;;4994956;28;20242;-87
2021/01/10 01:22:03;;;;;;;25.40;18.70;;;1.90;99.90;;;;;;4996423;28;20543;-88
2021/01/10 01:24:28;;;;;;;26.30;19.87;;;1.80;99.90;;;;;;4995243;28;20206;-86
2021/01/10 01:26:54;;;;;;;25.57;18.37;;;1.80;99.90;;;;;;4995641;28;20214;-88
2021/01/10 01:29:20;;;;;;;23.73;18.73;;;1.80;99.90;;;;;;4995032;28;20175;-86
2021/01/10 01:31:45;;;;;;;27.80;18.77;;;1.80;99.90;;;;;;4994692;28;20205;-86
2021/01/10 01:34:11;;;;;;;22.60;18.30;;;1.90;99.90;;;;;;4994893;28;20175;-86
2021/01/10 01:36:36;;;;;;;24.53;18.67;;;2.00;99.90;;;;;;4994444;28;20190;-87
2021/01/10 01:39:02;;;;;;;25.23;18.87;;;2.00;99.90;;;;;;4994257;28;20240;-89
2021/01/10 01:41:34;;;;;;;21.73;17.23;;;2.00;99.90;;;;;;4993533;28;20179;-86
2021/01/10 01:44:00;;;;;;;21.57;17.47;;;1.80;99.90;;;;;;4993603;28;20336;-86
2021/01/10 01:46:34;;;;;;;23.07;17.23;;;1.90;99.90;;;;;;4993563;28;20171;-87
2021/01/10 01:49:04;;;;;;;22.03;17.90;;;1.90;99.90;;;;;;4993398;28;20630;-87
2021/01/10 01:51:30;;;;;;;23.77;17.60;;;1.90;99.90;;;;;;4996316;28;20204;-88
2021/01/10 01:53:58;;;;;;;21.47;17.60;;;1.90;99.90;;;;;;4996540;28;20702;-89
2021/01/10 01:56:24;;;;;;;25.13;19.30;;;1.90;99.90;;;;;;4996612;28;20191;-85
2021/01/10 01:58:57;;;;;;;22.53;17.93;;;1.80;99.90;;;;;;4997573;28;20182;-86
2021/01/10 02:01:28;;;;;;;24.87;18.23;;;1.90;99.90;;;;;;4996719;28;20171;-86
2021/01/10 02:04:23;;;;;;;24.57;18.17;;;1.90;99.90;;;;;;4997169;28;20189;-87
2021/01/10 02:06:57;;;;;;;24.80;17.40;;;1.80;99.90;;;;;;4990517;28;20194;-87
2021/01/10 02:09:25;;;;;;;24.00;18.03;;;1.90;99.90;;;;;;4998278;28;20166;-87
2021/01/10 02:11:53;;;;;;;24.77;18.10;;;1.90;99.90;;;;;;4996884;28;20558;-87
2021/01/10 02:14:22;;;;;;;24.77;18.70;;;1.80;99.90;;;;;;4996618;28;20175;-87
2021/01/10 02:16:49;;;;;;;22.93;18.13;;;1.80;99.90;;;;;;5000407;28;20183;-89
2021/01/10 02:19:24;;;;;;;24.17;17.47;;;1.80;99.90;;;;;;4997802;28;20736;-85
2021/01/10 02:21:52;;;;;;;22.20;17.53;;;1.70;99.90;;;;;;4992457;28;20190;-86
2021/01/10 02:24:19;;;;;;;22.83;17.03;;;1.70;99.90;;;;;;4996603;28;20211;-87
2021/01/10 02:26:46;;;;;;;26.27;18.30;;;1.70;99.90;;;;;;4996580;28;20206;-87
2021/01/10 02:29:12;;;;;;;22.33;18.53;;;1.60;99.90;;;;;;4996359;28;20178;-87
2021/01/10 02:31:39;;;;;;;24.03;18.60;;;1.70;99.90;;;;;;4996424;28;20178;-86
2021/01/10 02:34:07;;;;;;;23.43;18.33;;;1.80;99.90;;;;;;4996362;28;20238;-87
2021/01/10 02:36:39;;;;;;;26.93;19.07;;;1.80;99.90;;;;;;4995978;28;20262;-88
2021/01/10 02:39:10;;;;;;;26.27;18.87;;;1.90;99.90;;;;;;4996301;28;20539;-86
2021/01/10 02:41:59;;;;;;;23.47;19.77;;;1.90;99.90;;;;;;4996180;28;20202;-86
2021/01/10 02:44:36;;;;;;;26.63;19.83;;;2.00;99.90;;;;;;4995995;28;20210;-87
2021/01/10 02:47:02;;;;;;;29.13;21.50;;;2.10;99.90;;;;;;4996172;28;20229;-87
2021/01/10 02:49:28;;;;;;;29.83;20.90;;;2.10;99.90;;;;;;4995691;28;20190;-87
2021/01/10 02:51:54;;;;;;;23.90;18.77;;;2.00;99.90;;;;;;4995522;28;20206;-86
2021/01/10 02:54:20;;;;;;;25.43;19.17;;;1.90;99.90;;;;;;4995705;28;20179;-86
2021/01/10 02:56:47;;;;;;;26.20;19.10;;;1.90;99.90;;;;;;4995849;28;20183;-86
2021/01/10 02:59:17;;;;;;;24.83;18.57;;;1.90;99.90;;;;;;4995970;28;20262;-86
2021/01/10 03:01:45;;;;;;;25.37;18.47;;;2.00;99.90;;;;;;4995599;28;20171;-88
2021/01/10 03:04:12;;;;;;;25.53;18.27;;;1.90;99.90;;;;;;4996072;28;20703;-84
2021/01/10 03:06:38;;;;;;;24.47;19.10;;;1.90;99.90;;;;;;4995356;28;20179;-86
2021/01/10 03:09:04;;;;;;;21.30;17.43;;;1.90;99.90;;;;;;4995260;28;20659;-86
2021/01/10 03:11:30;;;;;;;25.40;19.60;;;2.10;99.90;;;;;;4995241;28;20326;-86
2021/01/10 03:13:56;;;;;;;26.03;18.73;;;2.30;99.90;;;;;;4995468;28;20266;-88
2021/01/10 03:16:22;;;;;;;26.07;20.10;;;2.40;99.90;;;;;;4995381;28;20715;-86
2021/01/10 03:18:47;;;;;;;22.37;18.37;;;2.40;99.90;;;;;;4995247;28;20171;-86
2021/01/10 03:21:13;;;;;;;21.40;17.93;;;2.20;99.90;;;;;;4995022;28;20555;-88
2021/01/10 03:23:39;;;;;;;21.47;17.90;;;2.10;99.90;;;;;;4995317;28;20310;-86
2021/01/10 03:26:04;;;;;;;21.10;17.67;;;2.10;99.90;;;;;;4994835;28;20265;-86
2021/01/10 03:28:30;;;;;;;23.40;17.83;;;2.20;99.90;;;;;;4994884;28;20187;-86
2021/01/10 03:30:56;;;;;;;22.47;18.17;;;2.20;99.90;;;;;;4995893;28;20175;-86
2021/01/10 03:33:21;;;;;;;24.63;17.00;;;2.20;99.90;;;;;;4994904;28;20266;-86
2021/01/10 03:35:47;;;;;;;22.10;18.00;;;2.20;99.90;;;;;;4994486;28;20174;-86
2021/01/10 03:38:12;;;;;;;23.17;17.33;;;2.10;99.90;;;;;;4994949;28;20233;-86
2021/01/10 03:40:38;;;;;;;20.10;16.77;;;2.10;99.90;;;;;;4994803;28;20195;-86
2021/01/10 03:43:04;;;;;;;19.90;16.77;;;1.90;99.90;;;;;;4994911;28;20179;-84
2021/01/10 03:45:30;;;;;;;23.07;17.77;;;1.90;99.90;;;;;;4994624;28;20218;-86
2021/01/10 03:47:55;;;;;;;25.40;18.10;;;2.00;99.90;;;;;;4994723;28;20175;-86
2021/01/10 03:50:21;;;;;;;22.50;18.80;;;2.20;99.90;;;;;;4995433;28;20194;-86
2021/01/10 03:52:47;;;;;;;24.50;17.87;;;2.10;99.90;;;;;;4994894;28;20175;-91
2021/01/10 03:55:12;;;;;;;20.23;16.90;;;2.00;99.90;;;;;;4994647;28;20233;-86
2021/01/10 03:57:39;;;;;;;22.87;18.10;;;2.00;99.90;;;;;;4994785;28;20171;-86
2021/01/10 04:00:07;;;;;;;25.63;18.47;;;2.20;99.90;;;;;;4994242;28;20270;-86
2021/01/10 04:02:33;;;;;;;23.67;17.83;;;2.30;99.90;;;;;;4993865;28;20182;-86
2021/01/10 04:04:59;;;;;;;24.33;19.27;;;2.30;99.90;;;;;;4993987;28;20215;-87
2021/01/10 04:07:25;;;;;;;27.63;19.33;;;2.30;99.90;;;;;;4994966;28;20172;-86
2021/01/10 04:09:51;;;;;;;20.87;17.70;;;2.40;99.90;;;;;;4994273;28;20179;-86
2021/01/10 04:12:16;;;;;;;23.10;18.10;;;2.30;99.90;;;;;;4993731;28;20171;-87
2021/01/10 04:14:42;;;;;;;21.90;17.07;;;2.20;99.90;;;;;;4993681;28;20270;-87
2021/01/10 04:17:08;;;;;;;20.47;16.87;;;2.10;99.90;;;;;;4993584;28;20175;-87
2021/01/10 04:19:33;;;;;;;22.43;17.90;;;2.10;99.90;;;;;;4994029;28;20177;-87
2021/01/10 04:21:59;;;;;;;22.97;17.33;;;2.20;99.90;;;;;;4993837;28;20183;-88
2021/01/10 04:24:25;;;;;;;21.73;16.93;;;2.30;99.90;;;;;;4993569;28;20198;-85
2021/01/10 04:26:50;;;;;;;19.93;16.97;;;2.50;99.90;;;;;;4993541;28;20199;-86
2021/01/10 04:29:19;;;;;;;20.53;17.40;;;2.50;99.90;;;;;;4993643;28;20226;-85
2021/01/10 04:31:47;;;;;;;22.13;17.97;;;2.50;99.90;;;;;;4993236;28;20178;-85
2021/01/10 04:34:13;;;;;;;21.93;17.57;;;2.50;99.90;;;;;;4993710;28;20171;-85
2021/01/10 04:36:39;;;;;;;23.10;17.43;;;2.50;99.90;;;;;;4993454;28;20230;-86
2021/01/10 04:39:05;;;;;;;21.60;17.70;;;2.50;99.90;;;;;;4994603;28;20198;-86
2021/01/10 04:41:32;;;;;;;23.67;18.37;;;2.30;99.90;;;;;;4993393;28;20183;-85
2021/01/10 04:43:59;;;;;;;20.83;16.70;;;2.40;99.90;;;;;;4993531;28;20185;-86
2021/01/10 04:46:26;;;;;;;20.90;16.40;;;2.30;99.90;;;;;;4993140;28;20187;-85
2021/01/10 04:48:52;;;;;;;20.73;16.53;;;2.20;99.90;;;;;;4993281;28;20197;-85
2021/01/10 04:51:19;;;;;;;21.83;17.07;;;2.20;99.90;;;;;;4993309;28;20185;-85
2021/01/10 04:53:50;;;;;;;23.50;17.37;;;2.10;99.90;;;;;;4993431;28;20178;-88
2021/01/10 04:56:19;;;;;;;18.83;15.43;;;2.10;99.90;;;;;;4993230;28;20175;-85
2021/01/10 04:58:52;;;;;;;21.10;16.33;;;1.90;99.90;;;;;;4993431;28;20194;-86
2021/01/10 05:01:25;;;;;;;22.00;17.03;;;1.80;99.90;;;;;;4993033;28;20758;-85
2021/01/10 05:03:55;;;;;;;25.43;17.33;;;1.80;99.90;;;;;;4993300;28;20179;-87
2021/01/10 05:06:21;;;;;;;20.13;16.77;;;1.80;99.90;;;;;;4994202;28;20374;-87
2021/01/10 05:08:50;;;;;;;23.57;18.67;;;1.80;99.90;;;;;;4994290;28;20171;-87
2021/01/10 05:11:17;;;;;;;26.53;18.30;;;2.00;99.90;;;;;;4992864;28;20270;-86
2021/01/10 05:13:43;;;;;;;25.00;19.37;;;1.90;99.90;;;;;;4993018;28;20579;-88
2021/01/10 05:16:09;;;;;;;22.30;17.63;;;2.00;99.90;;;;;;4994052;28;20175;-86
2021/01/10 05:18:51;;;;;;;23.20;17.83;;;2.00;99.90;;;;;;4993063;28;20577;-86
2021/01/10 05:21:19;;;;;;;27.10;18.70;;;2.10;99.90;;;;;;4993061;28;20258;-87
2021/01/10 05:23:48;;;;;;;25.27;17.60;;;2.00;99.90;;;;;;4993004;28;20175;-86
2021/01/10 05:26:13;;;;;;;21.60;17.00;;;2.20;99.90;;;;;;4996000;28;20210;-86
2021/01/10 05:28:41;;;;;;;23.43;18.50;;;2.20;99.90;;;;;;4997034;28;20193;-89
2021/01/10 05:31:09;;;;;;;24.00;17.67;;;2.10;99.90;;;;;;4997085;28;20198;-88
2021/01/10 05:33:50;;;;;;;24.43;18.07;;;2.10;99.90;;;;;;4996922;28;20186;-86
2021/01/10 05:36:31;;;;;;;27.50;19.30;;;2.20;99.90;;;;;;4997189;28;20269;-86
2021/01/10 05:39:12;;;;;;;24.03;18.47;;;2.10;99.90;;;;;;4996858;28;20183;-87
2021/01/10 05:41:41;;;;;;;23.33;17.90;;;2.10;99.90;;;;;;4996681;28;20234;-86
2021/01/10 05:44:07;;;;;;;21.93;17.73;;;2.00;99.90;;;;;;4996635;28;20174;-86
2021/01/10 05:46:33;;;;;;;25.63;18.73;;;2.00;99.90;;;;;;4996741;28;20171;-85
2021/01/10 05:49:00;;;;;;;23.90;18.13;;;1.90;99.90;;;;;;4996716;28;20548;-87
2021/01/10 05:51:30;;;;;;;23.73;18.60;;;1.90;99.90;;;;;;4997130;28;20175;-86
2021/01/10 05:53:56;;;;;;;23.77;17.70;;;2.00;99.90;;;;;;4997019;28;20267;-86
2021/01/10 05:56:23;;;;;;;23.43;18.30;;;2.10;99.90;;;;;;4996939;28;20634;-89
2021/01/10 05:58:56;;;;;;;24.50;18.37;;;1.90;99.90;;;;;;4996393;28;20180;-87
2021/01/10 06:01:23;;;;;;;24.03;18.80;;;1.90;99.90;;;;;;4996671;28;20260;-86
2021/01/10 06:03:50;;;;;;;25.57;18.43;;;2.20;99.90;;;;;;4996646;28;20531;-85
2021/01/10 06:06:16;;;;;;;27.87;18.70;;;2.00;99.90;;;;;;4996538;28;20214;-87
2021/01/10 06:08:42;;;;;;;25.23;18.93;;;1.90;99.90;;;;;;4996295;28;20706;-87
2021/01/10 06:11:20;;;;;;;24.70;18.97;;;2.10;99.90;;;;;;4998192;28;20175;-87
2021/01/10 06:13:48;;;;;;;25.20;18.83;;;2.20;99.90;;;;;;4999059;28;20253;-87
2021/01/10 06:16:16;;;;;;;22.97;18.40;;;2.10;99.90;;;;;;4998980;28;20175;-87
2021/01/10 06:18:55;;;;;;;22.87;17.87;;;2.20;99.90;;;;;;4998059;28;20179;-86
2021/01/10 06:21:22;;;;;;;23.13;18.03;;;2.30;99.90;;;;;;4998394;28;20197;-86
2021/01/10 06:23:50;;;;;;;24.20;18.07;;;2.20;99.90;;;;;;4999057;28;20209;-86
2021/01/10 06:26:18;;;;;;;23.47;19.00;;;2.10;99.90;;;;;;4997468;28;20299;-87
2021/01/10 06:28:59;;;;;;;23.80;18.53;;;2.00;99.90;;;;;;4997600;28;20186;-87
2021/01/10 06:31:50;;;;;;;27.33;18.23;;;2.00;99.90;;;;;;4997224;28;20242;-86
2021/01/10 06:34:20;;;;;;;27.50;20.67;;;2.00;99.90;;;;;;4989116;28;20211;-87
2021/01/10 06:36:46;;;;;;;21.77;18.10;;;1.90;99.90;;;;;;4995453;28;20182;-88
2021/01/10 06:39:16;;;;;;;23.60;18.33;;;2.00;99.90;;;;;;4996202;28;20199;-88
2021/01/10 06:42:04;;;;;;;24.93;18.43;;;2.20;99.90;;;;;;4996822;28;20171;-87
2021/01/10 06:44:33;;;;;;;24.23;19.13;;;2.10;99.90;;;;;;4996329;28;20207;-87
2021/01/10 06:46:59;;;;;;;25.90;18.50;;;2.30;99.90;;;;;;4996560;28;20264;-87
2021/01/10 06:49:24;;;;;;;21.70;17.60;;;2.30;99.90;;;;;;4996030;28;20218;-87
2021/01/10 06:51:54;;;;;;;22.33;17.40;;;2.20;99.90;;;;;;4996369;28;20225;-87
2021/01/10 06:54:20;;;;;;;23.53;18.13;;;2.30;99.90;;;;;;4996299;28;20178;-87
2021/01/10 06:56:54;;;;;;;28.13;19.77;;;2.50;99.90;;;;;;4995997;28;20175;-87
2021/01/10 06:59:20;;;;;;;26.43;19.53;;;2.60;99.90;;;;;;4997782;28;20253;-86
2021/01/10 07:01:52;;;;;;;22.37;18.60;;;2.70;99.90;;;;;;4996083;28;20174;-86
2021/01/10 07:04:42;;;;;;;24.60;18.30;;;2.70;99.90;;;;;;4996910;28;20171;-87
2021/01/10 07:07:09;;;;;;;24.43;18.67;;;2.60;99.90;;;;;;4997992;28;20210;-87
2021/01/10 07:09:54;;;;;;;22.90;18.60;;;2.60;99.90;;;;;;4995904;28;20175;-86
2021/01/10 07:12:21;;;;;;;24.40;19.10;;;2.50;99.90;;;;;;4995769;28;20183;-86
2021/01/10 07:14:46;;;;;;;22.53;17.07;;;2.40;99.90;;;;;;4995220;28;20298;-86
2021/01/10 07:17:13;;;;;;;22.63;17.43;;;2.30;99.90;;;;;;4995379;28;20195;-88
2021/01/10 07:19:41;;;;;;;22.80;18.13;;;2.20;99.90;;;;;;4995285;28;20229;-87
2021/01/10 07:22:29;;;;;;;22.53;18.47;;;2.30;99.90;;;;;;4995364;28;20186;-86
2021/01/10 07:24:55;;;;;;;22.17;17.73;;;2.30;99.90;;;;;;4995164;28;20210;-86
2021/01/10 07:27:33;;;;;;;22.57;18.47;;;2.30;99.90;;;;;;4994482;28;20179;-86
2021/01/10 07:30:18;;;;;;;22.73;17.50;;;2.20;99.90;;;;;;4994394;28;20179;-85
2021/01/10 07:32:44;;;;;;;23.00;17.27;;;2.20;99.90;;;;;;4994875;28;20170;-85
2021/01/10 07:35:10;;;;;;;22.37;17.50;;;2.20;99.90;;;;;;4995006;28;20572;-87
2021/01/10 07:37:36;;;;;;;21.83;17.20;;;2.20;99.90;;;;;;4994989;28;20230;-87
2021/01/10 07:40:01;;;;;;;21.50;16.77;;;2.10;99.90;;;;;;4994863;28;20207;-86
2021/01/10 07:42:29;;;;;;;25.60;18.90;;;2.10;99.90;;;;;;4995937;28;20723;-87
2021/01/10 07:45:00;;;;;;;21.27;17.07;;;2.00;99.90;;;;;;4995240;28;20294;-87
2021/01/10 07:47:31;;;;;;;21.50;16.63;;;2.00;99.90;;;;;;4995523;28;20294;-87
2021/01/10 07:50:04;;;;;;;22.37;17.07;;;2.00;99.90;;;;;;4996917;28;20190;-87
2021/01/10 07:52:42;;;;;;;21.47;17.17;;;2.00;99.90;;;;;;4995721;28;20550;-87
2021/01/10 07:55:17;;;;;;;22.03;16.50;;;1.90;99.90;;;;;;4993887;28;20171;-87
2021/01/10 07:57:50;;;;;;;22.27;17.93;;;2.00;99.90;;;;;;4994200;28;20638;-87
2021/01/10 08:00:27;;;;;;;23.67;17.40;;;2.20;99.90;;;;;;4993941;28;20175;-88
2021/01/10 08:02:57;;;;;;;24.67;17.83;;;2.00;99.90;;;;;;4994230;28;20175;-84
2021/01/10 08:05:35;;;;;;;24.10;17.60;;;2.10;99.90;;;;;;4993384;28;20264;-85
2021/01/10 08:08:06;;;;;;;22.70;17.70;;;2.10;99.90;;;;;;4993283;28;20178;-84
2021/01/10 08:10:45;;;;;;;23.63;17.50;;;2.00;99.90;;;;;;5004512;28;20650;-88
2021/01/10 08:13:26;;;;;;;21.80;16.97;;;1.90;99.90;;;;;;5013005;28;20178;-86
2021/01/10 08:16:07;;;;;;;23.40;17.43;;;1.90;99.90;;;;;;5013086;28;20244;-87
2021/01/10 08:18:38;;;;;;;21.20;17.33;;;1.90;99.90;;;;;;5013288;28;20548;-88
2021/01/10 08:21:09;;;;;;;22.43;17.13;;;2.00;99.90;;;;;;5012753;28;20185;-85
2021/01/10 08:23:35;;;;;;;24.63;17.33;;;2.00;99.90;;;;;;5012437;28;20179;-86
2021/01/10 08:26:10;;;;;;;22.90;17.77;;;2.00;99.90;;;;;;5012345;28;20216;-87
2021/01/10 08:28:38;;;;;;;23.90;18.40;;;2.10;99.90;;;;;;5012630;28;20174;-86
2021/01/10 08:31:06;;;;;;;23.53;17.57;;;2.10;99.90;;;;;;5012233;28;20174;-84
2021/01/10 08:33:32;;;;;;;23.53;18.53;;;2.10;99.90;;;;;;5011979;28;20646;-83
2021/01/10 08:36:16;;;;;;;24.07;17.87;;;2.20;99.90;;;;;;5012584;28;20174;-84
2021/01/10 08:39:02;;;;;;;23.53;18.13;;;2.20;99.90;;;;;;5013387;28;20225;-87
2021/01/10 08:41:29;;;;;;;25.50;18.20;;;2.20;99.90;;;;;;5023697;28;20185;-85
2021/01/10 08:43:57;;;;;;;24.73;18.70;;;2.20;99.90;;;;;;5029165;28;20166;-86
2021/01/10 08:46:29;;;;;;;24.53;17.87;;;2.30;99.90;;;;;;5013421;28;20210;-84
2021/01/10 08:48:55;;;;;;;24.60;18.93;;;2.30;99.90;;;;;;5014194;28;20277;-88
2021/01/10 08:51:34;;;;;;;25.80;19.20;;;2.40;99.90;;;;;;5012988;28;20186;-87
2021/01/10 08:54:02;;;;;;;27.70;20.47;;;2.50;99.90;;;;;;5012019;28;20231;-86
2021/01/10 08:56:29;;;;;;;27.07;19.03;;;2.50;99.90;;;;;;5012007;28;20185;-84
2021/01/10 08:58:56;;;;;;;28.40;19.97;;;2.50;99.90;;;;;;5011429;28;20178;-84
2021/01/10 09:01:23;;;;;;;29.50;19.90;;;2.50;99.90;;;;;;5012394;28;20206;-93
2021/01/10 09:04:05;;;;;;;25.60;18.77;;;2.50;99.90;;;;;;5013366;28;20171;-86
2021/01/10 09:06:33;;;;;;;25.40;19.57;;;2.40;99.90;;;;;;5011750;28;20194;-85
2021/01/10 09:09:04;;;;;;;26.03;18.70;;;2.40;99.90;;;;;;5012002;28;20173;-86
2021/01/10 09:11:34;;;;;;;28.50;19.87;;;2.50;99.90;;;;;;5012564;28;20185;-85
2021/01/10 09:14:01;;;;;;;28.57;20.63;;;2.60;99.90;;;;;;5012642;28;20158;-87
2021/01/10 09:16:31;;;;;;;24.97;18.73;;;2.70;99.90;;;;;;5012497;28;20340;-87
2021/01/10 09:18:58;;;;;;;24.87;19.50;;;2.60;99.90;;;;;;5012416;28;20167;-87
2021/01/10 09:21:27;;;;;;;29.60;19.80;;;2.60;99.90;;;;;;5012974;28;20182;-86
2021/01/10 09:23:57;;;;;;;31.73;20.23;;;2.50;99.90;;;;;;5014187;28;20597;-87
2021/01/10 09:26:27;;;;;;;29.10;20.50;;;2.60;99.90;;;;;;5013092;28;20220;-87
2021/01/10 09:28:53;;;;;;;25.67;20.17;;;2.50;99.90;;;;;;5013367;28;20627;-86
2021/01/10 09:31:19;;;;;;;28.77;21.50;;;2.50;99.90;;;;;;5013445;28;20202;-86
2021/01/10 09:33:54;;;;;;;24.73;19.77;;;2.60;99.90;;;;;;5013168;28;20178;-85
2021/01/10 09:36:20;;;;;;;26.10;20.50;;;2.70;99.90;;;;;;5012709;28;20261;-88
2021/01/10 09:38:55;;;;;;;27.30;19.90;;;2.90;99.90;;;;;;5013098;28;20202;-86
2021/01/10 09:41:21;;;;;;;30.07;21.07;;;3.00;99.90;;;;;;5012844;28;20232;-87
2021/01/10 09:43:50;;;;;;;26.70;20.20;;;3.20;99.90;;;;;;5011260;28;20167;-86
2021/01/10 09:46:37;;;;;;;26.37;20.20;;;3.10;99.90;;;;;;5013532;28;20241;-87
2021/01/10 09:49:30;;;;;;;26.33;20.27;;;3.10;99.90;;;;;;5013628;28;20194;-86
2021/01/10 09:52:01;;;;;;;27.33;19.33;;;3.20;99.90;;;;;;5012976;28;20598;-85
2021/01/10 09:54:32;;;;;;;30.87;21.07;;;2.90;99.90;;;;;;5012261;28;20617;-84
2021/01/10 09:57:00;;;;;;;26.47;20.13;;;2.90;99.90;;;;;;5011957;28;20174;-85
2021/01/10 09:59:35;;;;;;;26.90;19.70;;;2.90;99.90;;;;;;5014903;28;20247;-87
2021/01/10 10:02:17;;;;;;;27.70;21.37;;;2.90;99.90;;;;;;5015271;28;20248;-85
2021/01/10 10:04:54;;;;;;;27.57;20.43;;;3.10;99.90;;;;;;5013428;28;20310;-88
2021/01/10 10:07:40;;;;;;;27.47;21.07;;;3.10;99.90;;;;;;5011848;28;20554;-85
2021/01/10 10:10:19;;;;;;;26.67;19.53;;;3.30;99.90;;;;;;5011764;28;20685;-85
2021/01/10 10:13:02;;;;;;;26.53;20.27;;;3.30;99.90;;;;;;5015708;28;20793;-87
2021/01/10 10:15:57;;;;;;;28.80;20.87;;;3.30;99.90;;;;;;5015960;28;20186;-86
2021/01/10 10:18:31;;;;;;;28.80;20.87;;;3.30;99.90;;;;;;5012958;28;20553;-88
2021/01/10 10:20:59;;;;;;;28.83;21.10;;;3.40;99.90;;;;;;5015186;28;20182;-87
2021/01/10 10:23:25;;;;;;;27.43;20.17;;;3.40;99.90;;;;;;5015189;28;20178;-86
2021/01/10 10:25:52;;;;;;;28.50;20.47;;;3.50;99.90;;;;;;5015694;28;20292;-86
2021/01/10 10:28:22;;;;;;;26.90;21.00;;;3.50;99.90;;;;;;5015117;28;20175;-85
2021/01/10 10:30:48;;;;;;;25.97;20.73;;;3.60;99.90;;;;;;5015398;28;20174;-86
2021/01/10 10:33:14;;;;;;;27.37;21.57;;;3.70;99.90;;;;;;5014888;28;20175;-86
2021/01/10 10:35:40;;;;;;;27.67;21.80;;;3.90;99.90;;;;;;5014887;28;20537;-86
2021/01/10 10:38:06;;;;;;;28.23;21.53;;;4.20;99.90;;;;;;5016432;28;20178;-86
2021/01/10 10:40:32;;;;;;;26.50;20.20;;;4.30;99.90;;;;;;5014925;28;20615;-86
2021/01/10 10:42:58;;;;;;;28.73;21.13;;;4.40;99.90;;;;;;5016025;28;20673;-88
2021/01/10 10:45:24;;;;;;;27.73;21.27;;;4.40;99.90;;;;;;5014480;28;20210;-87
2021/01/10 10:47:50;;;;;;;25.03;19.93;;;4.40;99.90;;;;;;5014936;28;20631;-87
2021/01/10 10:50:17;;;;;;;27.17;20.43;;;4.30;99.90;;;;;;5014124;28;20216;-86
2021/01/10 10:52:43;;;;;;;24.70;20.00;;;4.40;99.90;;;;;;5014734;28;20170;-86
2021/01/10 10:55:11;;;;;;;26.57;20.17;;;4.30;99.90;;;;;;5014246;28;20611;-86
2021/01/10 10:57:41;;;;;;;27.97;20.73;;;4.40;99.90;;;;;;5014899;28;20174;-86
2021/01/10 11:00:08;;;;;;;29.03;19.53;;;4.50;99.90;;;;;;5014643;28;20713;-86
2021/01/10 11:02:33;;;;;;;24.73;19.93;;;4.50;99.90;;;;;;5014990;28;20178;-88
2021/01/10 11:04:59;;;;;;;27.70;19.70;;;4.60;99.90;;;;;;5014537;28;20256;-86
2021/01/10 11:07:25;;;;;;;26.67;19.87;;;4.60;99.90;;;;;;5014825;28;20233;-86
2021/01/10 11:09:51;;;;;;;27.50;19.53;;;4.40;99.90;;;;;;5014942;28;20717;-86
2021/01/10 11:12:17;;;;;;;27.30;20.50;;;4.40;99.90;;;;;;5015031;28;20216;-87
2021/01/10 11:14:42;;;;;;;25.10;19.57;;;4.60;99.90;;;;;;5016175;28;20177;-85
2021/01/10 11:17:10;;;;;;;27.37;20.37;;;4.70;99.90;;;;;;5027535;28;20162;-85
2021/01/10 11:19:36;;;;;;;25.63;19.57;;;4.70;99.90;;;;;;5028458;28;20178;-88
2021/01/10 11:22:05;;;;;;;26.87;21.00;;;4.70;99.90;;;;;;5015554;28;20193;-87
2021/01/10 11:24:31;;;;;;;24.80;19.93;;;4.70;99.90;;;;;;5013795;28;20294;-86
2021/01/10 11:26:58;;;;;;;26.63;20.00;;;4.80;99.90;;;;;;5014083;28;20190;-86
2021/01/10 11:29:24;;;;;;;22.73;19.07;;;4.90;99.90;;;;;;5014210;28;20265;-85
2021/01/10 11:31:49;;;;;;;23.80;18.70;;;5.00;99.90;;;;;;5013991;28;20210;-87
2021/01/10 11:34:16;;;;;;;25.00;19.63;;;5.20;99.90;;;;;;5013616;28;20173;-85
2021/01/10 11:36:47;;;;;;;26.10;19.67;;;5.30;99.90;;;;;;5013844;28;20182;-87
2021/01/10 11:39:14;;;;;;;23.90;18.53;;;5.50;99.90;;;;;;5013774;28;20332;-87
2021/01/10 11:41:45;;;;;;;20.63;18.07;;;5.60;99.90;;;;;;5013800;28;20647;-86
2021/01/10 11:44:11;;;;;;;22.77;18.20;;;5.60;99.90;;;;;;5013664;28;20174;-85
2021/01/10 11:46:40;;;;;;;23.93;17.90;;;5.60;99.90;;;;;;5013429;28;20517;-86
2021/01/10 11:49:05;;;;;;;21.00;17.90;;;5.90;99.90;;;;;;5013526;28;20393;-88
2021/01/10 11:51:31;;;;;;;21.03;17.03;;;5.60;99.90;;;;;;5013710;28;20229;-87
2021/01/10 11:53:57;;;;;;;23.93;18.17;;;5.50;99.90;;;;;;5014353;28;20202;-86
2021/01/10 11:56:22;;;;;;;25.77;18.60;;;5.40;99.90;;;;;;5014508;28;20178;-86
2021/01/10 11:58:48;;;;;;;25.27;18.67;;;5.30;99.90;;;;;;5014723;28;20183;-86
2021/01/10 12:01:13;;;;;;;22.30;18.37;;;5.50;99.90;;;;;;5013774;28;20178;-84
2021/01/10 12:03:42;;;;;;;21.70;17.93;;;5.60;99.90;;;;;;5013636;28;20174;-88
2021/01/10 12:06:08;;;;;;;22.27;19.67;;;5.40;99.90;;;;;;5014500;28;20214;-87
2021/01/10 12:08:33;;;;;;;22.70;20.13;;;5.50;99.90;;;;;;5013585;28;20174;-85
2021/01/10 12:10:59;;;;;;;24.67;19.00;;;5.60;99.90;;;;;;5013052;28;20519;-84
2021/01/10 12:13:25;;;;;;;24.50;18.87;;;5.90;99.90;;;;;;5013069;28;20730;-86
2021/01/10 12:15:50;;;;;;;22.20;19.80;;;5.90;99.90;;;;;;5012966;28;20232;-85
2021/01/10 12:18:17;;;;;;;25.83;19.57;;;6.00;99.90;;;;;;5014904;28;20197;-85
2021/01/10 12:20:43;;;;;;;21.93;17.80;;;5.70;99.90;;;;;;5013609;28;20181;-89
2021/01/10 12:23:09;;;;;;;22.93;17.27;;;5.80;99.90;;;;;;5012762;28;20185;-85
2021/01/10 12:25:34;;;;;;;20.00;16.67;;;5.60;99.90;;;;;;5012518;28;20214;-85
2021/01/10 12:28:00;;;;;;;23.23;16.80;;;5.70;99.90;;;;;;5013021;28;20260;-86
2021/01/10 12:30:26;;;;;;;22.77;17.13;;;5.50;99.90;;;;;;5012500;28;20706;-86
2021/01/10 12:32:53;;;;;;;25.53;19.77;;;5.40;99.90;;;;;;5012778;28;20205;-86
2021/01/10 12:35:19;;;;;;;24.07;18.50;;;5.70;99.90;;;;;;5012700;28;20228;-87
2021/01/10 12:37:46;;;;;;;20.60;17.33;;;5.60;99.90;;;;;;5013034;28;20178;-87
2021/01/10 12:40:13;;;;;;;22.70;17.77;;;5.60;99.90;;;;;;5013158;28;20225;-86
2021/01/10 12:42:39;;;;;;;18.77;16.70;;;5.40;99.90;;;;;;5012953;28;20177;-86
2021/01/10 12:45:07;;;;;;;18.77;16.30;;;5.20;99.90;;;;;;5012654;28;20210;-84